Condat sur Vézère

LFDZ · Dordogne, Nouvelle-Aquitaine, 法国

罗盘
风向 的 风向 120°
风: 2 kt, 1 beaufort

添加一条跑道以查看侧风和逆风信息。

添置 跑道
0 1.000 2.000 3.000 4.000 5.000
OVC 1.800 ft
SPECI LFSL 030530Z AUTO 12002KT 9999 OVC018 03/02 Q1009 TEMPO 4000 -RADZ OVC010

METAR Condat sur Vézère - LFDZ

Condat sur Vézère是,法国中的小机场。 视场标高为499 ft。 该领域的国际民航组织标志是LFDZ.

这份报告是针对2022年12月3日 06:30, 当地时间在Brive-Souillac进行的。

机场观察

风向为120°,速度为2 kt。

可见度为10 km 或者更多。

有乌云密布在1.800 ft的高度。 破损或更高的上限为1.800 ft。

温度为3 °C,阵风为1 °C。 露点为2 °C,相对湿度为93%。 海平面上的气压为1009 hPa (QNH)。

发展趋势

  • 暂时的

    可变方向的风很小或没有。 可见性变为4 km。 重大天气:光 雨 细雨。 乌云密布在1.000 ft的高度.

白天

今天,太阳从08:15升起,在17:14降落。 这适用于Condat sur Vézère,世界夏令时可能有所不同。 当地时间与世界标准时间之间的时差为+1 小时。 当前,没有夏令时有效。

公司介绍

我们没有关于这个机场的公司信息。

体会

到Vliegles.nl去找飞行课程,跳伞和其他飞行体验。 浏览页面,了解Condat sur Vézère附近所有可用的活动。 你也可以使用搜索功能来寻找你所在地附近的特定飞行课程、跳伞或其他飞行体验。

乌云

1.800 ft OVC 乌云密布
1.000 ft OVC 暂时的 乌云密布

温度 & 天气

温度 3 °C
露点 2 °C
相对湿度 93%
风寒 1 °C
Kp-index 3 (0-9)

白天

日出
08:14 (1:21)
中午
12:43
日落
17:13

小工具

你想在你的网站上有一个关于Condat sur Vézère的当前航空天气(METAR)的小部件吗?

显示HTML代码

我们和第三方通过cookies跟踪您在我们网站上的互联网行为。如果你继续,我们认为你同意我们的饼干政策